createdAt,value
2017-09-14T00:02:10.230Z,91.90
2017-09-14T00:04:37.806Z,91.90
2017-09-14T00:07:05.399Z,91.60
2017-09-14T00:09:32.993Z,91.70
2017-09-14T00:12:01.338Z,91.90
2017-09-14T00:14:30.158Z,92.00
2017-09-14T00:16:57.720Z,91.90
2017-09-14T00:19:25.346Z,92.00
2017-09-14T00:21:53.905Z,91.90
2017-09-14T00:24:21.465Z,91.70
2017-09-14T00:26:49.046Z,91.90
2017-09-14T00:29:17.409Z,91.90
2017-09-14T00:31:45.046Z,91.90
2017-09-14T00:34:14.218Z,91.90
2017-09-14T00:36:42.578Z,92.00
2017-09-14T00:39:10.915Z,92.30
2017-09-14T00:41:38.897Z,92.00
2017-09-14T00:44:08.059Z,92.20
2017-09-14T00:46:35.639Z,92.20
2017-09-14T00:49:03.223Z,91.90
2017-09-14T00:51:30.830Z,92.00
2017-09-14T00:53:58.399Z,91.60
2017-09-14T00:56:25.988Z,92.00
2017-09-14T00:58:53.572Z,92.20
2017-09-14T01:01:21.136Z,92.30
2017-09-14T01:03:48.742Z,92.10
2017-09-14T01:06:17.086Z,92.40
2017-09-14T01:08:44.695Z,92.40
2017-09-14T01:11:13.201Z,92.30
2017-09-14T01:13:41.527Z,92.30
2017-09-14T01:16:09.199Z,92.30
2017-09-14T01:18:37.515Z,92.00
2017-09-14T01:21:05.139Z,92.10
2017-09-14T01:23:32.746Z,92.20
2017-09-14T01:26:01.110Z,92.30
2017-09-14T01:28:29.438Z,92.60
2017-09-14T01:30:57.034Z,92.30
2017-09-14T01:33:24.676Z,92.30
2017-09-14T01:35:52.281Z,92.20
2017-09-14T01:38:19.872Z,92.20
2017-09-14T01:40:47.533Z,92.30
2017-09-14T01:43:15.135Z,92.30
2017-09-14T01:45:43.614Z,92.10
2017-09-14T01:48:11.222Z,92.00
2017-09-14T01:50:39.562Z,92.20
2017-09-14T01:53:07.178Z,92.20
2017-09-14T01:55:34.806Z,92.40
2017-09-14T01:58:02.386Z,92.30
2017-09-14T02:00:29.964Z,92.40
2017-09-14T02:02:57.526Z,92.10
2017-09-14T02:05:25.103Z,92.50
2017-09-14T02:07:52.706Z,92.20
2017-09-14T02:10:20.280Z,92.20
2017-09-14T02:12:48.668Z,92.20
2017-09-14T02:15:16.237Z,92.20
2017-09-14T02:17:44.584Z,92.20
2017-09-14T02:20:13.660Z,91.00
2017-09-14T02:22:41.250Z,90.90
2017-09-14T02:25:08.831Z,90.40
2017-09-14T02:27:37.173Z,90.30
2017-09-14T02:30:04.769Z,90.40
2017-09-14T02:32:32.355Z,90.30
2017-09-14T02:34:59.935Z,90.80
2017-09-14T02:37:27.506Z,91.20
2017-09-14T02:39:55.121Z,90.80
2017-09-14T02:42:22.670Z,91.10
2017-09-14T02:44:50.234Z,91.00
2017-09-14T02:47:17.816Z,91.20
2017-09-14T02:49:46.182Z,91.20
2017-09-14T02:52:13.751Z,91.20
2017-09-14T02:54:41.312Z,91.50
2017-09-14T02:57:08.867Z,91.50
2017-09-14T02:59:36.684Z,91.30
2017-09-14T03:02:05.110Z,91.00
2017-09-14T03:04:32.687Z,91.10
2017-09-14T03:07:01.046Z,90.90
2017-09-14T03:09:29.388Z,90.90
2017-09-14T03:11:57.755Z,91.30
2017-09-14T03:14:26.105Z,91.00
2017-09-14T03:16:53.718Z,91.00
2017-09-14T03:19:21.330Z,91.90
2017-09-14T03:21:48.921Z,91.30
2017-09-14T03:24:16.494Z,91.00
2017-09-14T03:26:44.039Z,90.90
2017-09-14T03:29:11.610Z,90.90
2017-09-14T03:31:39.221Z,91.00
2017-09-14T03:34:07.542Z,91.20
2017-09-14T03:36:35.137Z,91.20
2017-09-14T03:39:03.487Z,91.10
2017-09-14T03:41:31.856Z,91.20
2017-09-14T03:44:00.181Z,91.30
2017-09-14T03:46:27.835Z,91.30
2017-09-14T03:48:55.399Z,91.30
2017-09-14T03:51:23.731Z,91.10
2017-09-14T03:53:51.303Z,91.10
2017-09-14T03:56:19.661Z,91.30
2017-09-14T03:58:47.982Z,91.10
2017-09-14T04:01:16.548Z,91.10
2017-09-14T04:03:45.138Z,91.40
2017-09-14T04:06:12.688Z,91.50
2017-09-14T04:08:40.289Z,91.30
2017-09-14T04:11:07.891Z,91.10
2017-09-14T04:13:35.462Z,91.30
2017-09-14T04:16:03.598Z,91.30
2017-09-14T04:18:31.965Z,91.30
2017-09-14T04:20:59.572Z,91.30
2017-09-14T04:23:27.982Z,91.30
2017-09-14T04:25:55.594Z,91.30
2017-09-14T04:28:23.934Z,91.40
2017-09-14T04:30:51.520Z,91.30
2017-09-14T04:33:19.879Z,91.70
2017-09-14T04:35:48.198Z,91.80
2017-09-14T04:38:15.763Z,91.80
2017-09-14T04:40:43.358Z,91.80
2017-09-14T04:43:10.933Z,91.80
2017-09-14T04:45:38.538Z,92.00
2017-09-14T04:48:07.022Z,92.10
2017-09-14T04:50:34.618Z,92.10
2017-09-14T04:53:02.210Z,92.20
2017-09-14T04:55:29.791Z,91.90
2017-09-14T04:57:57.371Z,91.90
2017-09-14T05:00:24.958Z,92.00
2017-09-14T05:02:52.539Z,92.00
2017-09-14T05:05:21.070Z,91.90
2017-09-14T05:07:48.656Z,91.90
2017-09-14T05:10:16.276Z,91.80
2017-09-14T05:12:43.880Z,91.90
2017-09-14T05:15:11.516Z,92.10
2017-09-14T05:17:39.101Z,92.00
2017-09-14T05:20:06.719Z,92.00
2017-09-14T05:22:34.331Z,92.00
2017-09-14T05:25:01.921Z,92.00
2017-09-14T05:27:29.511Z,92.00
2017-09-14T05:29:57.108Z,92.10
2017-09-14T05:32:24.676Z,91.70
2017-09-14T05:34:53.017Z,91.90
2017-09-14T05:37:20.658Z,91.90
2017-09-14T05:39:49.519Z,91.90
2017-09-14T05:42:17.137Z,91.90
2017-09-14T05:44:44.713Z,92.00
2017-09-14T05:47:14.293Z,92.20
2017-09-14T05:49:42.035Z,92.00
2017-09-14T05:52:09.637Z,92.00
2017-09-14T05:54:37.304Z,92.00
2017-09-14T05:57:05.000Z,92.00
2017-09-14T05:59:32.585Z,92.00
2017-09-14T06:02:00.137Z,91.80
2017-09-14T06:04:27.719Z,91.90
2017-09-14T06:06:55.295Z,91.80
2017-09-14T06:09:22.896Z,91.80
2017-09-14T06:11:51.344Z,91.80
2017-09-14T06:14:18.913Z,91.90
2017-09-14T06:16:46.527Z,92.00
2017-09-14T06:19:14.115Z,92.00
2017-09-14T06:21:42.489Z,91.80
2017-09-14T06:24:10.071Z,91.80
2017-09-14T06:26:37.654Z,91.70
2017-09-14T06:29:05.228Z,91.70
2017-09-14T06:31:32.802Z,91.60
2017-09-14T06:34:00.392Z,91.80
2017-09-14T06:36:27.980Z,91.50
2017-09-14T06:38:55.621Z,91.60
2017-09-14T06:41:23.200Z,91.50
2017-09-14T06:43:50.813Z,91.70
2017-09-14T06:46:18.388Z,91.70
2017-09-14T06:48:45.970Z,91.60
2017-09-14T06:51:13.635Z,91.70
2017-09-14T06:53:41.218Z,91.70
2017-09-14T06:56:08.843Z,91.80
2017-09-14T06:58:36.434Z,91.60
2017-09-14T07:01:04.795Z,91.50
2017-09-14T07:03:32.383Z,91.50
2017-09-14T07:05:59.979Z,91.50
2017-09-14T07:08:27.547Z,91.50
2017-09-14T07:10:55.179Z,91.50
2017-09-14T07:13:22.758Z,91.40
2017-09-14T07:15:50.360Z,91.40
2017-09-14T07:18:17.947Z,91.70
2017-09-14T07:20:45.513Z,91.00
2017-09-14T07:23:13.107Z,91.10
2017-09-14T07:25:40.689Z,91.00
2017-09-14T07:28:08.275Z,91.10
2017-09-14T07:30:36.022Z,90.90
2017-09-14T07:33:06.913Z,90.90
2017-09-14T07:36:02.738Z,90.80
2017-09-14T07:38:30.714Z,90.80
2017-09-14T07:41:06.208Z,91.00
2017-09-14T07:43:33.824Z,90.90
2017-09-14T07:46:01.421Z,90.60
2017-09-14T07:48:29.026Z,90.80
2017-09-14T07:50:57.369Z,90.80
2017-09-14T07:53:24.958Z,90.80
2017-09-14T07:55:53.320Z,90.90
2017-09-14T07:58:20.899Z,90.90
2017-09-14T08:00:49.257Z,90.90
2017-09-14T08:03:17.635Z,91.00
2017-09-14T08:05:45.987Z,91.00
2017-09-14T08:08:13.570Z,91.00
2017-09-14T08:10:41.168Z,90.70
2017-09-14T08:13:09.583Z,90.80
2017-09-14T08:15:37.217Z,90.80
2017-09-14T08:18:05.558Z,91.00
2017-09-14T08:20:33.190Z,90.90
2017-09-14T08:23:00.867Z,90.70
2017-09-14T08:25:28.442Z,90.50
2017-09-14T08:27:56.010Z,90.50
2017-09-14T08:30:23.590Z,90.50
2017-09-14T08:32:51.202Z,90.50
2017-09-14T08:35:19.615Z,90.30
2017-09-14T08:37:47.814Z,90.30
2017-09-14T08:40:16.156Z,90.20
2017-09-14T08:42:43.719Z,90.20
2017-09-14T08:45:11.303Z,90.00
2017-09-14T08:47:38.914Z,90.20
2017-09-14T08:50:06.493Z,89.50
2017-09-14T08:52:34.143Z,89.40
2017-09-14T08:55:01.739Z,89.20
2017-09-14T08:57:29.314Z,89.50
2017-09-14T08:59:58.127Z,89.60
2017-09-14T09:02:25.723Z,89.60
2017-09-14T09:04:54.089Z,89.20
2017-09-14T09:07:21.709Z,89.20
2017-09-14T09:09:49.258Z,88.30
2017-09-14T09:12:16.830Z,89.30
2017-09-14T09:14:44.441Z,89.70
2017-09-14T09:17:12.154Z,89.50
2017-09-14T09:19:39.749Z,90.00
2017-09-14T09:22:07.310Z,90.00
2017-09-14T09:24:35.588Z,89.10
2017-09-14T09:27:03.189Z,88.60
2017-09-14T09:29:31.451Z,89.50
2017-09-14T09:31:59.041Z,88.00
2017-09-14T09:34:27.413Z,87.40
2017-09-14T09:36:55.008Z,87.40
2017-09-14T09:39:22.557Z,89.00
2017-09-14T09:41:50.128Z,89.40
2017-09-14T09:44:18.624Z,89.00
2017-09-14T09:46:46.192Z,88.60
2017-09-14T09:49:14.180Z,89.40
2017-09-14T09:51:42.166Z,90.20
2017-09-14T09:54:09.798Z,90.30
2017-09-14T09:56:38.125Z,90.30
2017-09-14T09:59:05.694Z,90.30
2017-09-14T10:01:33.249Z,90.50
2017-09-14T10:04:00.811Z,90.40
2017-09-14T10:06:28.365Z,90.30
2017-09-14T10:08:55.979Z,90.40
2017-09-14T10:11:24.309Z,90.30
2017-09-14T10:13:51.871Z,90.30
2017-09-14T10:16:19.447Z,89.60
2017-09-14T10:18:47.777Z,88.80
2017-09-14T10:21:15.378Z,88.70
2017-09-14T10:23:43.014Z,88.70
2017-09-14T10:26:10.596Z,89.90
2017-09-14T10:28:39.018Z,88.30
2017-09-14T10:31:07.447Z,88.10
2017-09-14T10:33:35.034Z,88.20
2017-09-14T10:36:02.625Z,88.40
2017-09-14T10:38:30.210Z,87.90
2017-09-14T10:40:58.559Z,88.00
2017-09-14T10:43:27.832Z,88.00
2017-09-14T10:45:55.435Z,88.20
2017-09-14T10:48:23.028Z,87.30
2017-09-14T10:50:51.387Z,87.90
2017-09-14T10:53:18.976Z,87.90
2017-09-14T10:55:48.280Z,86.70
2017-09-14T10:58:16.618Z,87.60
2017-09-14T11:00:44.193Z,87.60
2017-09-14T11:03:12.598Z,86.50
2017-09-14T11:05:40.969Z,85.40
2017-09-14T11:08:09.933Z,85.20
2017-09-14T11:10:37.510Z,85.20
2017-09-14T11:13:05.851Z,84.60
2017-09-14T11:15:33.449Z,84.60
2017-09-14T11:18:01.007Z,84.60
2017-09-14T11:20:28.590Z,83.90
2017-09-14T11:22:56.187Z,84.20
2017-09-14T11:25:23.771Z,84.10
2017-09-14T11:27:52.698Z,83.40
2017-09-14T11:30:20.300Z,83.40
2017-09-14T11:32:49.233Z,84.70
2017-09-14T11:35:16.834Z,83.60
2017-09-14T11:37:44.427Z,83.30
2017-09-14T11:40:13.704Z,82.40
2017-09-14T11:42:42.086Z,82.00
2017-09-14T11:45:10.432Z,82.90
2017-09-14T11:47:38.032Z,82.90
2017-09-14T11:50:09.410Z,81.00
2017-09-14T11:52:39.266Z,80.90
2017-09-14T11:55:06.918Z,79.40
2017-09-14T11:57:35.278Z,81.80
2017-09-14T12:00:03.652Z,81.10
2017-09-14T12:02:31.234Z,81.10
2017-09-14T12:04:58.819Z,80.90
2017-09-14T12:07:27.493Z,80.30
2017-09-14T12:09:55.140Z,80.30
2017-09-14T12:12:26.868Z,78.60
2017-09-14T12:14:56.420Z,78.50
2017-09-14T12:17:23.991Z,77.80
2017-09-14T12:19:52.095Z,77.60
2017-09-14T12:22:20.443Z,71.70
2017-09-14T12:24:48.060Z,71.70
2017-09-14T12:27:15.700Z,70.70
2017-09-14T12:29:43.323Z,70.60
2017-09-14T12:32:11.665Z,76.90
2017-09-14T12:34:39.312Z,76.80
2017-09-14T12:37:07.458Z,78.90
2017-09-14T12:39:35.831Z,79.60
2017-09-14T12:42:03.432Z,79.50
2017-09-14T12:44:31.032Z,76.20
2017-09-14T12:46:58.606Z,77.70
2017-09-14T12:49:26.182Z,75.80
2017-09-14T12:51:53.777Z,72.70
2017-09-14T12:54:21.620Z,71.70
2017-09-14T12:56:49.215Z,71.10
2017-09-14T12:59:16.844Z,70.50
2017-09-14T13:01:45.415Z,68.20
2017-09-14T13:04:13.024Z,69.00
2017-09-14T13:06:40.675Z,68.60
2017-09-14T13:09:08.274Z,68.10
2017-09-14T13:11:35.857Z,67.40
2017-09-14T13:14:04.191Z,65.10
2017-09-14T13:16:31.801Z,65.10
2017-09-14T13:18:59.385Z,66.10
2017-09-14T13:21:27.707Z,64.20
2017-09-14T13:23:55.280Z,64.20
2017-09-14T13:26:23.741Z,63.80
2017-09-14T13:28:51.326Z,63.60
2017-09-14T13:31:18.919Z,62.60
2017-09-14T13:33:46.518Z,61.50
2017-09-14T13:36:14.563Z,59.60
2017-09-14T13:38:42.197Z,60.00
2017-09-14T13:41:09.825Z,59.60
2017-09-14T13:43:37.509Z,60.00
2017-09-14T13:46:05.373Z,56.80
2017-09-14T13:48:33.035Z,57.10
2017-09-14T13:51:01.065Z,59.10
2017-09-14T13:53:28.670Z,59.80
2017-09-14T13:55:56.825Z,61.20
2017-09-14T13:58:26.470Z,61.20
2017-09-14T14:00:54.140Z,63.00
2017-09-14T14:03:21.740Z,65.60
2017-09-14T14:05:49.334Z,65.30
2017-09-14T14:40:42.877Z,69.50
2017-09-14T14:43:10.450Z,71.10
2017-09-14T14:45:38.793Z,76.00
2017-09-14T14:48:06.374Z,76.10
2017-09-14T14:50:33.949Z,77.80
2017-09-14T14:53:02.286Z,82.40
2017-09-14T14:55:29.870Z,82.30
2017-09-14T14:57:57.436Z,82.30
2017-09-14T15:00:25.031Z,84.00
2017-09-14T15:02:52.608Z,82.60
2017-09-14T15:05:20.203Z,80.60
2017-09-14T15:07:47.813Z,80.60
2017-09-14T15:10:15.371Z,80.00
2017-09-14T15:12:42.947Z,77.80
2017-09-14T15:15:11.300Z,75.90
2017-09-14T15:17:39.651Z,75.40
2017-09-14T15:20:07.222Z,75.40
2017-09-14T15:22:37.526Z,74.10
2017-09-14T15:25:05.099Z,74.10
2017-09-14T15:27:32.856Z,73.40
2017-09-14T15:30:00.430Z,72.50
2017-09-14T15:32:27.965Z,71.90
2017-09-14T15:34:55.530Z,73.20
2017-09-14T15:37:23.090Z,73.00
2017-09-14T15:39:56.461Z,73.00
2017-09-14T15:42:29.615Z,71.20
2017-09-14T15:45:03.525Z,72.20
2017-09-14T15:47:31.852Z,72.80
2017-09-14T15:50:05.143Z,72.80
2017-09-14T15:52:32.702Z,74.30
2017-09-14T15:55:00.296Z,73.50
2017-09-14T15:57:27.898Z,73.90
2017-09-14T15:59:55.517Z,72.70
2017-09-14T16:02:23.100Z,73.30
2017-09-14T16:04:51.412Z,72.60
2017-09-14T16:07:19.005Z,72.70
2017-09-14T16:09:46.561Z,73.40
2017-09-14T16:12:14.114Z,73.00
2017-09-14T16:14:41.709Z,73.80
2017-09-14T16:17:10.053Z,73.90
2017-09-14T16:19:37.645Z,73.90
2017-09-14T16:22:05.226Z,74.50
2017-09-14T16:24:32.803Z,75.20
2017-09-14T16:27:00.352Z,76.90
2017-09-14T16:29:27.942Z,76.50
2017-09-14T16:31:55.492Z,76.40
2017-09-14T16:34:23.074Z,76.90
2017-09-14T16:36:52.473Z,75.30
2017-09-14T16:39:20.038Z,76.20
2017-09-14T16:41:47.625Z,76.40
2017-09-14T16:44:19.500Z,74.60
2017-09-14T16:46:47.805Z,74.90
2017-09-14T16:49:15.384Z,74.90
2017-09-14T16:51:42.929Z,75.40
2017-09-14T16:54:10.487Z,75.10
2017-09-14T16:56:38.051Z,75.10
2017-09-14T16:59:05.637Z,76.30
2017-09-14T17:01:33.208Z,75.10
2017-09-14T17:04:00.874Z,75.80
2017-09-14T17:06:28.563Z,75.50
2017-09-14T17:08:56.929Z,77.00
2017-09-14T17:11:24.527Z,76.90
2017-09-14T17:13:52.192Z,77.20
2017-09-14T17:16:19.919Z,77.60
2017-09-14T17:18:47.504Z,77.50
2017-09-14T17:21:15.138Z,77.20
2017-09-14T17:23:42.836Z,77.60
2017-09-14T17:26:10.596Z,78.30
2017-09-14T17:28:38.205Z,77.50
2017-09-14T17:31:05.787Z,77.60
2017-09-14T17:33:33.403Z,77.50
2017-09-14T17:36:01.082Z,78.00
2017-09-14T17:38:28.701Z,77.70
2017-09-14T17:40:56.300Z,77.50
2017-09-14T17:43:23.989Z,77.20
2017-09-14T17:45:51.746Z,76.30
2017-09-14T17:48:19.411Z,76.10
2017-09-14T17:50:47.012Z,76.50
2017-09-14T17:53:15.357Z,76.10
2017-09-14T17:55:42.958Z,76.10
2017-09-14T17:58:11.346Z,76.40
2017-09-14T18:00:38.971Z,76.40
2017-09-14T18:03:06.561Z,76.70
2017-09-14T18:05:34.141Z,76.00
2017-09-14T18:08:02.280Z,74.80
2017-09-14T18:10:32.126Z,75.80
2017-09-14T18:13:00.139Z,75.80
2017-09-14T18:15:27.801Z,75.60
2017-09-14T18:17:55.418Z,75.90
2017-09-14T18:20:23.147Z,76.90
2017-09-14T18:22:52.635Z,77.00
2017-09-14T18:25:20.805Z,76.90
2017-09-14T18:27:48.447Z,77.70
2017-09-14T18:30:16.085Z,77.60
2017-09-14T18:32:43.665Z,78.10
2017-09-14T18:35:11.348Z,78.20
2017-09-14T18:37:41.041Z,79.00
2017-09-14T18:40:08.809Z,80.30
2017-09-14T18:42:36.999Z,78.70
2017-09-14T18:45:05.342Z,78.60
2017-09-14T18:47:32.943Z,78.50
2017-09-14T18:50:00.575Z,78.40
2017-09-14T18:52:28.216Z,78.00
2017-09-14T18:54:55.837Z,77.90
2017-09-14T18:57:23.446Z,77.70
2017-09-14T18:59:51.180Z,77.00
2017-09-14T19:02:18.981Z,77.60
2017-09-14T19:04:46.617Z,78.00
2017-09-14T19:07:15.146Z,77.10
2017-09-14T19:09:42.817Z,77.10
2017-09-14T19:12:10.488Z,77.10
2017-09-14T19:14:38.270Z,77.20
2017-09-14T19:17:05.956Z,77.00
2017-09-14T19:19:35.113Z,76.90
2017-09-14T19:22:06.853Z,77.30
2017-09-14T19:24:35.029Z,77.50
2017-09-14T19:27:03.144Z,77.50
2017-09-14T19:29:30.850Z,76.70
2017-09-14T19:31:58.484Z,77.70
2017-09-14T19:34:26.862Z,78.00
2017-09-14T19:36:56.108Z,77.60
2017-09-14T19:39:24.731Z,77.60
2017-09-14T19:41:54.549Z,78.30
2017-09-14T19:44:23.072Z,77.40
2017-09-14T19:46:50.819Z,77.50
2017-09-14T19:49:18.547Z,77.20
2017-09-14T19:51:46.120Z,77.00
2017-09-14T19:54:13.703Z,76.90
2017-09-14T19:56:42.050Z,76.30
2017-09-14T19:59:09.658Z,76.30
2017-09-14T20:01:38.080Z,76.40
2017-09-14T20:04:05.734Z,76.50
2017-09-14T20:06:33.302Z,76.10
2017-09-14T20:09:00.882Z,76.90
2017-09-14T20:11:28.516Z,76.90
2017-09-14T20:13:56.950Z,77.10
2017-09-14T20:16:25.315Z,77.20
2017-09-14T20:18:52.879Z,77.20
2017-09-14T20:21:21.366Z,77.20
2017-09-14T20:23:50.512Z,77.10
2017-09-14T20:26:18.505Z,77.10
2017-09-14T20:28:46.143Z,77.00
2017-09-14T20:31:13.754Z,77.40
2017-09-14T20:33:41.408Z,77.10
2017-09-14T20:36:09.052Z,77.90
2017-09-14T20:38:36.658Z,78.40
2017-09-14T20:41:04.237Z,78.10
2017-09-14T20:43:31.864Z,77.90
2017-09-14T20:45:59.638Z,78.10
2017-09-14T20:48:27.285Z,77.80
2017-09-14T20:50:54.849Z,77.00
2017-09-14T20:53:22.443Z,77.50
2017-09-14T20:55:50.315Z,77.10
2017-09-14T20:58:17.890Z,76.50
2017-09-14T21:00:45.432Z,76.40
2017-09-14T21:03:13.977Z,76.10
2017-09-14T21:05:42.797Z,76.50
2017-09-14T21:08:11.664Z,76.00
2017-09-14T21:10:40.122Z,75.90
2017-09-14T21:13:07.721Z,76.00
2017-09-14T21:15:36.057Z,76.00
2017-09-14T21:18:03.768Z,76.00
2017-09-14T21:20:33.162Z,75.50
2017-09-14T21:23:03.935Z,75.50
2017-09-14T21:25:35.361Z,75.10
2017-09-14T21:28:04.502Z,75.00
2017-09-14T21:30:33.034Z,74.90
2017-09-14T21:33:03.323Z,75.20
2017-09-14T21:35:32.615Z,75.10
2017-09-14T21:38:01.529Z,75.00
2017-09-14T21:40:29.159Z,74.10
2017-09-14T21:42:56.864Z,74.50
2017-09-14T21:45:25.272Z,74.40
2017-09-14T21:47:52.859Z,74.40
2017-09-14T21:50:21.216Z,74.10
2017-09-14T21:52:49.666Z,74.20
2017-09-14T21:55:17.437Z,74.10
2017-09-14T21:57:45.880Z,74.00
2017-09-14T22:00:13.454Z,73.90
2017-09-14T22:02:41.034Z,73.80
2017-09-14T22:05:08.652Z,74.00
2017-09-14T22:07:37.007Z,75.20
2017-09-14T22:10:05.332Z,75.70
2017-09-14T22:12:32.955Z,75.70
2017-09-14T22:15:01.365Z,76.60
2017-09-14T22:17:28.931Z,76.60
2017-09-14T22:19:56.491Z,76.70
2017-09-14T22:22:24.075Z,77.00
2017-09-14T22:24:51.646Z,77.40
2017-09-14T22:27:19.981Z,78.00
2017-09-14T22:29:47.572Z,78.00
2017-09-14T22:32:15.136Z,77.70
2017-09-14T22:34:42.733Z,78.40
2017-09-14T22:37:10.289Z,78.00
2017-09-14T22:39:38.618Z,78.30
2017-09-14T22:42:06.185Z,78.30
2017-09-14T22:44:33.762Z,77.70
2017-09-14T22:47:01.337Z,78.20
2017-09-14T22:49:29.768Z,77.50
2017-09-14T22:51:57.325Z,77.50
2017-09-14T22:54:24.870Z,77.90
2017-09-14T22:56:52.481Z,78.10
2017-09-14T22:59:20.062Z,78.10
2017-09-14T23:01:48.387Z,78.40
2017-09-14T23:04:15.981Z,78.30
2017-09-14T23:06:43.534Z,78.70
2017-09-14T23:09:11.117Z,78.80
2017-09-14T23:11:39.450Z,78.90
2017-09-14T23:14:07.035Z,78.90
2017-09-14T23:16:34.592Z,78.80
2017-09-14T23:19:02.178Z,78.90
2017-09-14T23:21:30.536Z,78.40
2017-09-14T23:23:58.093Z,78.40
2017-09-14T23:26:25.723Z,78.20
2017-09-14T23:28:53.299Z,78.30
2017-09-14T23:31:20.877Z,78.00
2017-09-14T23:33:48.426Z,78.00
2017-09-14T23:36:16.028Z,77.90
2017-09-14T23:38:44.365Z,77.90
2017-09-14T23:41:11.934Z,78.00
2017-09-14T23:43:39.514Z,77.60
2017-09-14T23:46:07.831Z,77.30
2017-09-14T23:48:35.394Z,77.30
2017-09-14T23:51:02.935Z,78.00
2017-09-14T23:53:30.477Z,77.90
2017-09-14T23:55:58.022Z,77.90
2017-09-14T23:58:25.601Z,78.10
